Terminal Aerodrome Forecast
Issued by NWS

Home | Current Version | Previous Version | Graphics & Text | Print | Product List | Glossary On
Versions: 1 2 3 4 5 6 7 8 9 10 11 12 13
000
FTUS43 KGRB 280520
TAFAUW
TAF
KAUW 280520Z 2806/2906 32006KT P6SM VCSH SCT008 OVC015
      TEMPO 2806/2810 BKN008
     FM281000 35007KT P6SM BKN008 OVC015
     FM281400 02009KT P6SM OVC015
     FM281600 03011G17KT P6SM BKN025
     FM282200 02007KT P6SM BKN035
     FM290000 02005KT P6SM SKC=

USA.gov is the U.S. government's official web portal to all federal, state and local government web resources and services.